createdAt,value
2019-03-17T00:01:23.157Z,18.07
2019-03-17T00:03:51.555Z,18.87
2019-03-17T00:06:19.952Z,19.47
2019-03-17T00:08:48.348Z,18.97
2019-03-17T00:11:16.731Z,21.23
2019-03-17T00:13:45.173Z,18.43
2019-03-17T00:16:13.607Z,16.60
2019-03-17T00:18:41.998Z,18.00
2019-03-17T00:21:10.383Z,25.60
2019-03-17T00:23:38.772Z,17.07
2019-03-17T00:26:07.165Z,22.73
2019-03-17T00:28:35.567Z,28.43
2019-03-17T00:31:04.003Z,24.90
2019-03-17T00:33:32.360Z,21.50
2019-03-17T00:36:00.741Z,20.33
2019-03-17T00:38:30.437Z,20.90
2019-03-17T00:40:58.819Z,22.10
2019-03-17T00:43:27.235Z,23.00
2019-03-17T00:45:55.623Z,22.40
2019-03-17T00:48:24.021Z,23.10
2019-03-17T00:50:52.426Z,25.43
2019-03-17T00:53:20.809Z,23.27
2019-03-17T00:55:49.196Z,28.23
2019-03-17T00:58:17.579Z,26.43
2019-03-17T01:00:46.039Z,29.57
2019-03-17T01:03:14.423Z,72.40
2019-03-17T01:05:42.821Z,87.40
2019-03-17T01:08:11.217Z,102.13
2019-03-17T01:10:39.719Z,84.90
2019-03-17T01:13:08.086Z,120.90
2019-03-17T01:15:36.553Z,121.97
2019-03-17T01:18:05.054Z,84.27
2019-03-17T01:20:33.505Z,103.43
2019-03-17T01:23:01.959Z,51.73
2019-03-17T01:25:30.342Z,45.93
2019-03-17T01:27:58.724Z,48.33
2019-03-17T01:30:27.171Z,38.87
2019-03-17T01:32:55.564Z,27.27
2019-03-17T01:35:23.950Z,26.60
2019-03-17T01:37:52.336Z,37.10
2019-03-17T01:40:20.734Z,44.83
2019-03-17T01:42:49.122Z,41.23
2019-03-17T01:45:17.509Z,29.17
2019-03-17T01:47:45.899Z,22.90
2019-03-17T01:50:14.380Z,29.37
2019-03-17T01:52:42.781Z,41.67
2019-03-17T01:55:11.169Z,22.93
2019-03-17T01:57:39.560Z,32.73
2019-03-17T02:00:10.937Z,23.33
2019-03-17T02:02:39.325Z,29.63
2019-03-17T02:05:07.787Z,25.63
2019-03-17T02:07:36.176Z,34.33
2019-03-17T02:10:06.017Z,39.70
2019-03-17T02:12:34.401Z,28.00
2019-03-17T02:15:02.791Z,33.80
2019-03-17T02:17:31.170Z,58.47
2019-03-17T02:19:59.568Z,56.47
2019-03-17T02:22:27.958Z,47.63
2019-03-17T02:24:56.348Z,38.60
2019-03-17T02:27:24.754Z,50.30
2019-03-17T02:29:53.153Z,32.23
2019-03-17T02:32:21.538Z,31.33
2019-03-17T02:34:49.944Z,26.63
2019-03-17T02:37:18.333Z,21.50
2019-03-17T02:39:46.732Z,20.67
2019-03-17T02:42:15.129Z,23.47
2019-03-17T02:44:43.545Z,30.00
2019-03-17T02:47:11.928Z,25.50
2019-03-17T02:49:40.332Z,23.70
2019-03-17T02:52:08.729Z,20.70
2019-03-17T02:54:37.120Z,26.60
2019-03-17T02:57:05.516Z,21.73
2019-03-17T02:59:33.926Z,20.23
2019-03-17T03:02:02.313Z,21.20
2019-03-17T03:04:30.729Z,21.60
2019-03-17T03:06:59.093Z,23.93
2019-03-17T03:09:27.647Z,21.77
2019-03-17T03:11:56.110Z,19.93
2019-03-17T03:14:24.522Z,22.33
2019-03-17T03:16:52.910Z,26.17
2019-03-17T03:19:21.289Z,25.00
2019-03-17T03:21:49.718Z,24.97
2019-03-17T03:24:18.126Z,25.93
2019-03-17T03:26:46.495Z,22.17
2019-03-17T03:29:14.880Z,23.00
2019-03-17T03:31:44.440Z,22.37
2019-03-17T03:34:12.816Z,30.00
2019-03-17T03:36:41.205Z,25.00
2019-03-17T03:39:09.599Z,24.23
2019-03-17T03:41:38.293Z,37.97
2019-03-17T03:44:06.683Z,41.23
2019-03-17T03:46:35.078Z,36.53
2019-03-17T03:49:03.501Z,43.50
2019-03-17T03:51:31.870Z,47.20
2019-03-17T03:54:00.270Z,44.50
2019-03-17T03:56:28.660Z,27.80
2019-03-17T03:58:57.050Z,29.17
2019-03-17T04:01:25.447Z,28.00
2019-03-17T04:03:53.832Z,39.33
2019-03-17T04:06:26.775Z,23.50
2019-03-17T04:08:52.367Z,24.53
2019-03-17T04:11:20.786Z,23.40
2019-03-17T04:13:49.197Z,23.53
2019-03-17T04:16:17.585Z,18.60
2019-03-17T04:18:45.968Z,22.43
2019-03-17T04:21:14.354Z,22.90
2019-03-17T04:23:42.748Z,28.03
2019-03-17T04:26:11.148Z,22.53
2019-03-17T04:28:39.536Z,22.17
2019-03-17T04:31:07.940Z,23.87
2019-03-17T04:33:36.331Z,22.80
2019-03-17T04:36:04.716Z,18.93
2019-03-17T04:38:33.098Z,18.23
2019-03-17T04:41:01.496Z,20.63
2019-03-17T04:43:29.886Z,19.47
2019-03-17T04:45:58.272Z,18.57
2019-03-17T04:48:26.667Z,20.70
2019-03-17T04:50:55.134Z,20.70
2019-03-17T04:53:23.506Z,20.47
2019-03-17T04:55:51.894Z,18.83
2019-03-17T04:58:20.279Z,19.83
2019-03-17T05:00:48.677Z,19.43
2019-03-17T05:03:17.063Z,19.83
2019-03-17T05:05:45.514Z,18.40
2019-03-17T05:08:13.903Z,18.43
2019-03-17T05:10:42.317Z,18.10
2019-03-17T05:13:10.716Z,22.77
2019-03-17T05:15:39.103Z,20.53
2019-03-17T05:18:07.493Z,21.30
2019-03-17T05:20:35.881Z,19.97
2019-03-17T05:23:05.863Z,19.40
2019-03-17T05:25:34.506Z,24.73
2019-03-17T05:28:02.901Z,25.57
2019-03-17T05:30:31.289Z,21.73
2019-03-17T05:32:59.681Z,22.27
2019-03-17T05:35:28.067Z,22.93
2019-03-17T05:37:56.483Z,28.63
2019-03-17T05:40:24.864Z,25.67
2019-03-17T05:42:53.255Z,37.47
2019-03-17T05:45:21.635Z,39.40
2019-03-17T05:47:50.033Z,33.53
2019-03-17T05:50:18.417Z,27.63
2019-03-17T05:52:46.802Z,21.60
2019-03-17T05:55:15.189Z,24.40
2019-03-17T05:57:43.588Z,18.80
2019-03-17T06:00:14.797Z,20.23
2019-03-17T06:02:43.178Z,20.20
2019-03-17T06:05:11.561Z,18.33
2019-03-17T06:07:39.957Z,19.50
2019-03-17T06:10:08.519Z,20.43
2019-03-17T06:12:36.915Z,18.07
2019-03-17T06:15:08.415Z,17.80
2019-03-17T06:17:36.829Z,15.40
2019-03-17T06:20:06.564Z,17.53
2019-03-17T06:22:35.000Z,15.33
2019-03-17T06:25:04.476Z,18.03
2019-03-17T06:27:32.863Z,21.93
2019-03-17T06:30:01.255Z,18.37
2019-03-17T06:32:29.661Z,19.23
2019-03-17T06:34:58.050Z,16.27
2019-03-17T06:37:30.890Z,17.73
2019-03-17T06:39:56.554Z,18.23
2019-03-17T06:42:24.945Z,14.43
2019-03-17T06:44:53.340Z,16.07
2019-03-17T06:47:21.731Z,18.63
2019-03-17T06:49:50.122Z,16.77
2019-03-17T06:52:18.578Z,17.63
2019-03-17T06:54:46.975Z,18.97
2019-03-17T06:57:15.355Z,20.93
2019-03-17T06:59:43.742Z,16.87
2019-03-17T07:02:12.151Z,19.43
2019-03-17T07:04:40.548Z,18.93
2019-03-17T07:07:08.927Z,17.03
2019-03-17T07:09:37.405Z,17.63
2019-03-17T07:12:05.813Z,14.90
2019-03-17T07:14:34.212Z,16.00
2019-03-17T07:17:02.604Z,16.37
2019-03-17T07:19:31.101Z,14.53
2019-03-17T07:22:00.459Z,14.53
2019-03-17T07:24:28.864Z,17.70
2019-03-17T07:26:57.244Z,12.80
2019-03-17T07:29:25.635Z,16.00
2019-03-17T07:31:54.017Z,13.43
2019-03-17T07:34:22.417Z,13.67
2019-03-17T07:36:50.819Z,16.23
2019-03-17T07:39:19.209Z,12.73
2019-03-17T07:41:47.588Z,13.20
2019-03-17T07:44:15.979Z,12.13
2019-03-17T07:46:44.366Z,11.43
2019-03-17T07:49:12.756Z,15.97
2019-03-17T07:51:41.130Z,13.17
2019-03-17T07:54:11.439Z,14.50
2019-03-17T07:56:41.759Z,12.17
2019-03-17T07:59:15.994Z,11.93
2019-03-17T08:01:44.398Z,11.10
2019-03-17T08:04:12.806Z,10.60
2019-03-17T08:06:41.182Z,8.87
2019-03-17T08:09:09.661Z,11.90
2019-03-17T08:11:38.046Z,9.93
2019-03-17T08:14:06.420Z,10.93
2019-03-17T08:16:34.814Z,11.63
2019-03-17T08:19:03.198Z,10.63
2019-03-17T08:21:31.579Z,9.63
2019-03-17T08:23:59.958Z,8.23
2019-03-17T08:26:28.356Z,11.20
2019-03-17T08:28:56.772Z,9.80
2019-03-17T08:31:25.153Z,11.40
2019-03-17T08:33:53.537Z,12.33
2019-03-17T08:36:21.967Z,10.00
2019-03-17T08:38:50.392Z,7.90
2019-03-17T08:41:18.800Z,10.63
2019-03-17T08:43:54.102Z,12.77
2019-03-17T08:46:17.376Z,6.87
2019-03-17T08:48:45.756Z,9.13
2019-03-17T08:51:14.204Z,9.10
2019-03-17T08:53:42.578Z,6.47
2019-03-17T08:56:10.937Z,7.10
2019-03-17T08:58:39.319Z,12.03
2019-03-17T09:01:07.767Z,8.90
2019-03-17T09:03:36.142Z,6.90
2019-03-17T09:06:04.664Z,8.67
2019-03-17T09:08:35.379Z,9.03
2019-03-17T09:11:03.150Z,6.80
2019-03-17T09:13:31.527Z,6.73
2019-03-17T09:15:59.918Z,7.20
2019-03-17T09:18:28.310Z,8.23
2019-03-17T09:20:56.697Z,6.50
2019-03-17T09:23:25.071Z,8.93
2019-03-17T09:25:53.454Z,6.83
2019-03-17T09:28:21.840Z,6.27
2019-03-17T09:30:50.284Z,6.03
2019-03-17T09:33:18.663Z,5.03
2019-03-17T09:35:47.056Z,6.17
2019-03-17T09:38:15.439Z,5.30
2019-03-17T09:40:43.828Z,4.67
2019-03-17T09:43:12.223Z,4.13
2019-03-17T09:45:40.593Z,4.93
2019-03-17T09:48:08.991Z,4.97
2019-03-17T09:50:37.382Z,5.73
2019-03-17T09:53:05.763Z,7.17
2019-03-17T09:55:34.152Z,6.73
2019-03-17T09:58:02.560Z,7.07
2019-03-17T10:00:30.935Z,4.00
2019-03-17T10:02:59.322Z,7.33
2019-03-17T10:05:27.732Z,5.00
2019-03-17T10:07:56.141Z,3.20
2019-03-17T10:10:24.605Z,4.50
2019-03-17T10:12:52.998Z,3.83
2019-03-17T10:15:21.550Z,3.93
2019-03-17T10:17:50.009Z,2.80
2019-03-17T10:20:20.321Z,4.03
2019-03-17T10:22:48.695Z,3.67
2019-03-17T10:25:17.144Z,2.43
2019-03-17T10:27:45.537Z,3.77
2019-03-17T10:30:18.482Z,2.50
2019-03-17T10:32:46.861Z,2.33
2019-03-17T10:35:15.266Z,3.40
2019-03-17T10:37:43.745Z,2.40
2019-03-17T10:40:19.160Z,3.20
2019-03-17T10:42:47.579Z,2.63
2019-03-17T10:45:16.043Z,5.00
2019-03-17T10:47:44.434Z,2.10
2019-03-17T10:50:16.857Z,2.10
2019-03-17T10:52:45.257Z,4.73
2019-03-17T10:55:13.874Z,3.10
2019-03-17T10:57:42.264Z,2.70
2019-03-17T11:00:19.613Z,1.67
2019-03-17T11:02:48.072Z,1.93
2019-03-17T11:05:16.457Z,2.20
2019-03-17T11:07:44.849Z,5.20
2019-03-17T11:10:14.392Z,1.70
2019-03-17T11:12:42.844Z,3.33
2019-03-17T11:15:14.275Z,1.40
2019-03-17T11:17:42.659Z,1.97
2019-03-17T11:20:12.987Z,2.43
2019-03-17T11:22:41.367Z,1.50
2019-03-17T11:25:11.191Z,3.03
2019-03-17T11:27:39.579Z,2.23
2019-03-17T11:30:11.991Z,3.10
2019-03-17T11:32:40.378Z,1.90
2019-03-17T11:35:08.923Z,3.23
2019-03-17T11:37:37.307Z,1.60
2019-03-17T11:40:19.535Z,1.70
2019-03-17T11:42:49.853Z,3.07
2019-03-17T11:45:18.596Z,2.90
2019-03-17T11:47:47.358Z,2.02
2019-03-17T11:50:19.621Z,2.03
2019-03-17T11:52:48.148Z,1.83
2019-03-17T11:55:16.594Z,1.80
2019-03-17T11:57:45.347Z,2.47
2019-03-17T12:00:17.667Z,1.80
2019-03-17T12:02:46.065Z,1.97
2019-03-17T12:05:14.509Z,2.80
2019-03-17T12:07:42.956Z,5.80
2019-03-17T12:10:16.242Z,2.27
2019-03-17T12:12:50.463Z,2.23
2019-03-17T12:15:21.023Z,2.50
2019-03-17T12:17:49.406Z,1.60
2019-03-17T12:20:17.863Z,4.13
2019-03-17T12:22:46.250Z,3.30
2019-03-17T12:25:15.976Z,2.83
2019-03-17T12:27:44.384Z,2.70
2019-03-17T12:30:15.817Z,2.33
2019-03-17T12:32:44.208Z,2.27
2019-03-17T12:35:12.657Z,2.80
2019-03-17T12:37:41.044Z,3.53
2019-03-17T12:40:09.577Z,4.90
2019-03-17T12:42:37.956Z,3.63
2019-03-17T12:45:08.073Z,3.37
2019-03-17T12:47:37.519Z,2.33
2019-03-17T12:50:09.248Z,3.70
2019-03-17T12:52:37.633Z,2.30
2019-03-17T12:55:07.457Z,3.73
2019-03-17T12:57:35.846Z,2.42
2019-03-17T13:00:15.781Z,2.63
2019-03-17T13:02:44.244Z,2.03
2019-03-17T13:05:13.370Z,1.93
2019-03-17T13:07:41.835Z,1.80
2019-03-17T13:10:16.793Z,3.23
2019-03-17T13:12:45.343Z,3.63
2019-03-17T13:15:13.797Z,2.10
2019-03-17T13:17:42.262Z,3.27
2019-03-17T13:20:18.698Z,4.00
2019-03-17T13:22:47.091Z,4.00
2019-03-17T13:25:15.544Z,3.60
2019-03-17T13:27:43.979Z,4.50
2019-03-17T13:30:17.099Z,2.57
2019-03-17T13:32:45.496Z,3.23
2019-03-17T13:35:13.968Z,3.13
2019-03-17T13:37:42.338Z,3.53
2019-03-17T13:40:28.113Z,2.63
2019-03-17T13:42:48.215Z,3.60
2019-03-17T13:45:16.658Z,3.60
2019-03-17T13:47:45.053Z,1.47
2019-03-17T13:50:15.080Z,3.80
2019-03-17T13:52:43.467Z,3.53
2019-03-17T13:55:11.932Z,4.20
2019-03-17T13:57:41.987Z,3.33
2019-03-17T14:00:13.387Z,2.20
2019-03-17T14:02:41.866Z,7.00
2019-03-17T14:05:10.439Z,2.63
2019-03-17T14:07:38.850Z,2.13
2019-03-17T14:10:14.642Z,1.97
2019-03-17T14:12:43.234Z,5.63
2019-03-17T14:15:13.457Z,4.73
2019-03-17T14:17:41.919Z,2.33
2019-03-17T14:20:21.394Z,4.07
2019-03-17T14:22:50.264Z,2.63
2019-03-17T14:25:33.091Z,2.80
2019-03-17T14:28:01.525Z,5.93
2019-03-17T14:30:29.859Z,4.47
2019-03-17T14:32:58.248Z,4.80
2019-03-17T14:35:26.630Z,3.07
2019-03-17T14:37:55.016Z,4.57
2019-03-17T14:40:23.395Z,4.10
2019-03-17T14:42:51.782Z,3.23
2019-03-17T14:45:20.168Z,7.70
2019-03-17T14:47:48.642Z,3.10
2019-03-17T14:50:23.963Z,3.63
2019-03-17T14:52:52.456Z,2.87
2019-03-17T14:55:20.903Z,4.40
2019-03-17T14:57:49.290Z,6.07
2019-03-17T15:00:22.168Z,4.43
2019-03-17T15:02:50.624Z,5.50
2019-03-17T15:05:19.084Z,6.07
2019-03-17T15:07:47.462Z,4.37
2019-03-17T15:10:20.479Z,3.17
2019-03-17T15:12:48.929Z,3.50
2019-03-17T15:15:18.452Z,3.17
2019-03-17T15:17:46.904Z,6.47
2019-03-17T15:20:19.558Z,4.23
2019-03-17T15:22:47.959Z,5.20
2019-03-17T15:25:16.419Z,4.70
2019-03-17T15:27:44.796Z,6.23
2019-03-17T15:30:21.907Z,3.30
2019-03-17T15:32:50.363Z,4.60
2019-03-17T15:35:18.777Z,3.77
2019-03-17T15:37:47.301Z,5.63
2019-03-17T15:40:17.056Z,4.57
2019-03-17T15:42:46.506Z,7.17
2019-03-17T15:45:16.432Z,7.20
2019-03-17T15:47:45.307Z,5.67
2019-03-17T15:50:17.959Z,8.57
2019-03-17T15:52:46.386Z,4.13
2019-03-17T15:55:18.101Z,7.57
2019-03-17T15:57:46.592Z,7.50
2019-03-17T16:00:25.319Z,3.73
2019-03-17T16:02:50.694Z,5.73
2019-03-17T16:05:19.805Z,5.53
2019-03-17T16:07:48.260Z,6.87
2019-03-17T16:10:22.097Z,7.80
2019-03-17T16:12:50.498Z,8.20
2019-03-17T16:15:19.124Z,7.20
2019-03-17T16:17:47.518Z,13.47
2019-03-17T16:20:18.379Z,10.10
2019-03-17T16:22:47.128Z,14.73
2019-03-17T16:25:29.465Z,10.17
2019-03-17T16:27:57.858Z,14.27
2019-03-17T16:30:30.307Z,11.47
2019-03-17T16:32:58.864Z,9.10
2019-03-17T16:35:27.254Z,8.00
2019-03-17T16:37:55.712Z,10.30
2019-03-17T16:40:25.435Z,7.50
2019-03-17T16:42:54.261Z,4.77
2019-03-17T16:45:22.791Z,3.57
2019-03-17T16:47:51.174Z,2.40
2019-03-17T16:50:23.912Z,0.83
2019-03-17T16:52:52.340Z,0.40
2019-03-17T16:55:20.817Z,0.53
2019-03-17T16:57:49.270Z,1.93
2019-03-17T17:00:21.255Z,1.23
2019-03-17T17:02:50.502Z,1.13
2019-03-17T17:05:23.773Z,0.97
2019-03-17T17:07:53.043Z,0.30
2019-03-17T17:10:25.479Z,0.40
2019-03-17T17:12:53.928Z,1.30
2019-03-17T17:15:31.080Z,0.20
2019-03-17T17:18:00.510Z,0.30
2019-03-17T17:20:33.724Z,0.70
2019-03-17T17:23:02.158Z,1.53
2019-03-17T17:25:32.098Z,0.53
2019-03-17T17:28:00.674Z,0.53
2019-03-17T17:30:29.029Z,1.20
2019-03-17T17:32:57.405Z,0.53
2019-03-17T17:35:25.793Z,0.60
2019-03-17T17:37:54.180Z,0.30
2019-03-17T17:40:23.494Z,0.40
2019-03-17T17:42:51.877Z,2.20
2019-03-17T17:45:21.406Z,0.97
2019-03-17T17:47:49.787Z,0.93
2019-03-17T17:50:20.245Z,0.83
2019-03-17T17:52:48.696Z,1.80
2019-03-17T17:55:17.159Z,1.47
2019-03-17T17:57:46.530Z,0.83
2019-03-17T18:00:20.463Z,1.17
2019-03-17T18:02:48.842Z,1.03
2019-03-17T18:05:17.294Z,0.93
2019-03-17T18:07:45.667Z,1.73
2019-03-17T18:10:16.055Z,1.00
2019-03-17T18:12:44.512Z,0.97
2019-03-17T18:15:34.581Z,2.77
2019-03-17T18:18:03.105Z,0.90
2019-03-17T18:20:31.491Z,0.90
2019-03-17T18:22:59.872Z,1.37
2019-03-17T18:25:28.255Z,1.60
2019-03-17T18:27:56.630Z,2.60
2019-03-17T18:30:26.579Z,1.50
2019-03-17T18:32:54.963Z,1.20
2019-03-17T18:35:24.317Z,1.80
2019-03-17T18:37:52.759Z,1.70
2019-03-17T18:40:21.969Z,1.07
2019-03-17T18:42:50.525Z,1.40
2019-03-17T18:45:23.931Z,1.60
2019-03-17T18:47:52.313Z,2.43
2019-03-17T18:50:21.285Z,3.20
2019-03-17T18:52:49.780Z,1.57
2019-03-17T18:55:18.349Z,2.60
2019-03-17T18:57:46.740Z,2.00
2019-03-17T19:00:17.328Z,2.83
2019-03-17T19:02:45.778Z,2.67
2019-03-17T19:05:15.189Z,1.57
2019-03-17T19:07:43.580Z,2.63
2019-03-17T19:10:14.671Z,3.27
2019-03-17T19:12:45.662Z,2.93
2019-03-17T19:15:21.122Z,5.50
2019-03-17T19:17:49.564Z,2.97
2019-03-17T19:20:18.995Z,1.70
2019-03-17T19:22:47.379Z,2.57
2019-03-17T19:25:17.961Z,2.00
2019-03-17T19:27:46.338Z,2.47
2019-03-17T19:30:16.760Z,2.53
2019-03-17T19:32:45.679Z,3.57
2019-03-17T19:35:14.688Z,4.90
2019-03-17T19:37:43.072Z,2.23
2019-03-17T19:40:14.238Z,1.93
2019-03-17T19:42:42.616Z,3.30
2019-03-17T19:45:11.932Z,2.92
2019-03-17T19:47:40.492Z,3.23
2019-03-17T19:50:17.207Z,4.57
2019-03-17T19:52:45.593Z,1.70
2019-03-17T19:55:14.050Z,2.17
2019-03-17T19:57:42.424Z,2.90
2019-03-17T20:00:15.604Z,2.43
2019-03-17T20:02:47.006Z,3.00
2019-03-17T20:05:14.381Z,1.93
2019-03-17T20:07:42.900Z,2.73
2019-03-17T20:10:17.207Z,1.97
2019-03-17T20:12:45.581Z,2.53
2019-03-17T20:15:13.963Z,1.10
2019-03-17T20:17:42.340Z,5.00
2019-03-17T20:20:13.333Z,3.27
2019-03-17T20:22:41.711Z,4.20
2019-03-17T20:25:10.291Z,1.93
2019-03-17T20:27:38.693Z,5.97
2019-03-17T20:30:17.909Z,1.53
2019-03-17T20:32:46.281Z,2.67
2019-03-17T20:35:14.828Z,1.37
2019-03-17T20:37:43.285Z,1.00
2019-03-17T20:40:16.710Z,2.33
2019-03-17T20:42:45.220Z,2.47
2019-03-17T20:45:14.763Z,2.93
2019-03-17T20:47:43.197Z,3.30
2019-03-17T20:50:13.963Z,4.90
2019-03-17T20:52:42.411Z,2.73
2019-03-17T20:55:11.651Z,1.60
2019-03-17T20:57:40.123Z,2.33
2019-03-17T21:00:13.757Z,3.60
2019-03-17T21:02:42.178Z,2.23
2019-03-17T21:05:11.648Z,2.73
2019-03-17T21:07:41.330Z,2.57
2019-03-17T21:10:16.586Z,3.00
2019-03-17T21:12:44.944Z,2.87
2019-03-17T21:15:21.823Z,3.17
2019-03-17T21:17:50.279Z,1.10
2019-03-17T21:20:23.587Z,1.43
2019-03-17T21:22:51.969Z,2.63
2019-03-17T21:25:20.447Z,2.57
2019-03-17T21:27:48.902Z,3.13
2019-03-17T21:30:22.902Z,2.77
2019-03-17T21:32:51.297Z,3.13
2019-03-17T21:35:19.808Z,3.23
2019-03-17T21:37:48.216Z,2.90
2019-03-17T21:40:16.611Z,1.90
2019-03-17T21:42:45.032Z,1.30
2019-03-17T21:45:14.261Z,3.20
2019-03-17T21:47:42.651Z,3.60
2019-03-17T21:50:19.279Z,1.87
2019-03-17T21:52:47.780Z,1.93
2019-03-17T21:55:16.237Z,1.63
2019-03-17T21:57:44.688Z,2.00
2019-03-17T22:00:15.527Z,4.73
2019-03-17T22:02:43.936Z,1.67
2019-03-17T22:05:13.182Z,1.60
2019-03-17T22:07:49.261Z,1.27
2019-03-17T22:10:19.782Z,2.90
2019-03-17T22:12:48.318Z,2.00
2019-03-17T22:15:17.496Z,2.13
2019-03-17T22:17:45.985Z,3.80
2019-03-17T22:20:16.219Z,2.93
2019-03-17T22:22:44.706Z,1.63
2019-03-17T22:25:16.554Z,2.80
2019-03-17T22:27:44.930Z,2.63
2019-03-17T22:30:20.154Z,3.60
2019-03-17T22:32:48.813Z,4.60
2019-03-17T22:35:17.316Z,2.53
2019-03-17T22:37:45.735Z,2.20
2019-03-17T22:40:20.244Z,1.63
2019-03-17T22:42:48.642Z,2.90
2019-03-17T22:45:17.252Z,3.40
2019-03-17T22:47:45.598Z,3.20
2019-03-17T22:50:19.772Z,2.30
2019-03-17T22:52:49.100Z,3.60
2019-03-17T22:55:17.556Z,4.20
2019-03-17T22:57:45.931Z,3.80
2019-03-17T23:00:34.832Z,2.10
2019-03-17T23:03:03.297Z,1.90
2019-03-17T23:05:31.727Z,3.40
2019-03-17T23:08:00.105Z,3.27
2019-03-17T23:10:28.555Z,3.07
2019-03-17T23:12:57.029Z,3.03
2019-03-17T23:15:25.486Z,3.90
2019-03-17T23:17:53.947Z,2.40
2019-03-17T23:20:22.457Z,2.37
2019-03-17T23:22:50.849Z,4.10
2019-03-17T23:25:19.236Z,4.33
2019-03-17T23:27:47.625Z,2.43
2019-03-17T23:30:22.592Z,3.93
2019-03-17T23:32:51.003Z,3.20
2019-03-17T23:35:19.406Z,3.07
2019-03-17T23:37:47.834Z,2.27
2019-03-17T23:40:17.170Z,3.10
2019-03-17T23:42:45.691Z,4.43
2019-03-17T23:45:14.222Z,2.50
2019-03-17T23:47:42.747Z,1.27
2019-03-17T23:50:13.844Z,1.70
2019-03-17T23:52:42.324Z,2.37
2019-03-17T23:55:12.166Z,3.20
2019-03-17T23:57:40.646Z,3.70
